createdAt,value
2022-09-11T00:02:59.874Z,15.47
2022-09-11T00:08:03.057Z,15.43
2022-09-11T00:13:06.104Z,15.36
2022-09-11T00:18:13.148Z,15.33
2022-09-11T00:23:17.706Z,15.30
2022-09-11T00:28:24.098Z,15.30
2022-09-11T00:33:29.186Z,15.31
2022-09-11T00:38:35.418Z,15.31
2022-09-11T00:43:57.556Z,15.31
2022-09-11T00:49:04.894Z,15.33
2022-09-11T00:54:12.558Z,15.33
2022-09-11T00:59:16.875Z,15.31
2022-09-11T01:04:23.190Z,15.30
2022-09-11T01:09:28.208Z,15.26
2022-09-11T01:14:41.648Z,15.28
2022-09-11T01:20:20.308Z,15.27
2022-09-11T01:25:28.552Z,15.26
2022-09-11T01:30:41.736Z,15.33
2022-09-11T01:35:56.947Z,15.29
2022-09-11T01:41:11.694Z,15.27
2022-09-11T01:46:25.206Z,15.28
2022-09-11T01:51:33.830Z,15.23
2022-09-11T01:56:42.766Z,15.17
2022-09-11T02:01:52.363Z,15.14
2022-09-11T02:07:06.942Z,15.11
2022-09-11T02:12:17.762Z,15.05
2022-09-11T02:17:28.307Z,15.01
2022-09-11T02:22:31.755Z,14.96
2022-09-11T02:27:37.050Z,14.97
2022-09-11T02:32:45.544Z,14.92
2022-09-11T02:37:57.041Z,14.90
2022-09-11T02:43:16.659Z,14.79
2022-09-11T02:48:39.504Z,14.82
2022-09-11T02:53:50.972Z,14.78
2022-09-11T02:58:56.580Z,14.74
2022-09-11T03:04:03.313Z,14.72
2022-09-11T03:09:10.000Z,14.69
2022-09-11T03:14:14.646Z,14.69
2022-09-11T03:19:20.965Z,14.62
2022-09-11T03:24:24.097Z,14.52
2022-09-11T03:29:27.058Z,14.44
2022-09-11T03:34:34.691Z,14.43
2022-09-11T03:39:37.954Z,14.36
2022-09-11T03:44:41.519Z,14.34
2022-09-11T03:49:49.289Z,14.30
2022-09-11T03:54:52.473Z,14.32
2022-09-11T03:59:56.985Z,14.31
2022-09-11T04:05:03.894Z,14.25
2022-09-11T04:10:11.321Z,14.20
2022-09-11T04:15:14.837Z,14.09
2022-09-11T04:20:19.883Z,14.02
2022-09-11T04:25:23.076Z,13.98
2022-09-11T04:30:26.694Z,13.98
2022-09-11T04:35:31.146Z,13.93
2022-09-11T04:40:36.541Z,13.91
2022-09-11T04:45:40.624Z,13.87
2022-09-11T04:50:48.277Z,13.80
2022-09-11T04:56:08.065Z,13.75
2022-09-11T05:01:18.074Z,13.62
2022-09-11T05:06:27.793Z,13.63
2022-09-11T05:11:31.225Z,13.64
2022-09-11T05:16:37.115Z,13.64
2022-09-11T05:21:47.613Z,13.66
2022-09-11T05:26:50.683Z,13.62
2022-09-11T05:31:55.123Z,13.69
2022-09-11T05:36:59.743Z,13.75
2022-09-11T05:42:06.195Z,13.73
2022-09-11T05:47:12.029Z,13.87
2022-09-11T05:52:17.248Z,13.87
2022-09-11T05:57:20.563Z,13.96
2022-09-11T06:02:25.161Z,14.07
2022-09-11T06:07:31.903Z,14.15
2022-09-11T06:12:35.561Z,14.27
2022-09-11T06:17:39.138Z,14.38
2022-09-11T06:22:43.640Z,14.50
2022-09-11T06:27:46.983Z,14.64
2022-09-11T06:32:50.700Z,14.75
2022-09-11T06:37:57.456Z,14.88
2022-09-11T06:43:00.601Z,15.04
2022-09-11T06:48:04.425Z,15.18
2022-09-11T06:53:11.712Z,15.36
2022-09-11T06:58:22.847Z,15.58
2022-09-11T07:03:26.729Z,15.75
2022-09-11T07:08:31.840Z,15.96
2022-09-11T07:13:37.586Z,16.16
2022-09-11T07:18:43.357Z,16.36
2022-09-11T07:23:56.589Z,16.50
2022-09-11T07:29:00.370Z,16.57
2022-09-11T07:34:03.841Z,16.66
2022-09-11T07:39:09.514Z,16.67
2022-09-11T07:44:23.253Z,16.88
2022-09-11T07:49:27.401Z,17.09
2022-09-11T07:54:32.693Z,17.24
2022-09-11T07:59:35.833Z,17.41
2022-09-11T08:04:40.370Z,17.67
2022-09-11T08:09:44.740Z,17.90
2022-09-11T08:14:47.998Z,18.22
2022-09-11T08:19:55.718Z,18.41
2022-09-11T08:25:00.661Z,18.59
2022-09-11T08:30:03.956Z,18.85
2022-09-11T08:35:07.997Z,19.17
2022-09-11T08:40:13.715Z,19.47
2022-09-11T08:45:20.384Z,19.85
2022-09-11T08:50:26.778Z,20.16
2022-09-11T08:55:38.564Z,20.63
2022-09-11T09:00:48.533Z,21.20
2022-09-11T09:05:57.815Z,21.56
2022-09-11T09:11:16.033Z,21.70
2022-09-11T09:16:35.245Z,22.26
2022-09-11T09:21:47.773Z,22.86
2022-09-11T09:26:59.066Z,23.64
2022-09-11T09:32:08.639Z,23.77
2022-09-11T09:37:18.715Z,24.42
2022-09-11T09:42:48.653Z,24.82
2022-09-11T09:47:51.976Z,25.09
2022-09-11T09:53:11.685Z,25.23
2022-09-11T09:58:16.170Z,25.47
2022-09-11T10:03:21.565Z,25.42
2022-09-11T10:08:29.448Z,25.49
2022-09-11T10:13:35.884Z,25.59
2022-09-11T10:18:43.926Z,25.67
2022-09-11T10:23:50.480Z,25.82
2022-09-11T10:28:57.839Z,25.78
2022-09-11T10:34:02.348Z,25.92
2022-09-11T10:39:05.618Z,26.31
2022-09-11T10:44:17.117Z,26.47
2022-09-11T10:49:23.828Z,26.71
2022-09-11T10:54:54.974Z,26.93
2022-09-11T11:00:06.389Z,27.02
2022-09-11T11:05:17.164Z,27.52
2022-09-11T11:10:33.512Z,27.65
2022-09-11T11:15:51.218Z,27.81
2022-09-11T11:21:03.431Z,27.84
2022-09-11T11:26:33.198Z,27.98
2022-09-11T11:31:56.718Z,27.90
2022-09-11T11:37:06.992Z,27.79
2022-09-11T11:42:16.258Z,27.75
2022-09-11T11:47:25.447Z,27.19
2022-09-11T11:52:40.237Z,27.13
2022-09-11T11:57:52.236Z,27.37
2022-09-11T12:03:03.329Z,27.46
2022-09-11T12:08:14.268Z,27.29
2022-09-11T12:13:19.858Z,27.38
2022-09-11T12:18:26.076Z,27.83
2022-09-11T12:23:56.256Z,27.95
2022-09-11T12:29:40.986Z,27.56
2022-09-11T12:35:16.093Z,27.43
2022-09-11T12:40:26.373Z,27.57
2022-09-11T12:45:40.541Z,27.55
2022-09-11T12:50:54.320Z,27.63
2022-09-11T12:56:02.559Z,27.66
2022-09-11T13:01:18.724Z,27.58
2022-09-11T13:06:24.647Z,27.53
2022-09-11T13:11:45.238Z,27.52
2022-09-11T13:16:52.292Z,27.69
2022-09-11T13:21:57.272Z,27.97
2022-09-11T13:27:05.844Z,28.03
2022-09-11T13:32:11.954Z,27.90
2022-09-11T13:37:31.228Z,28.04
2022-09-11T13:42:35.337Z,27.77
2022-09-11T13:47:42.408Z,27.30
2022-09-11T13:52:47.408Z,27.33
2022-09-11T13:57:55.486Z,27.40
2022-09-11T14:03:00.407Z,27.68
2022-09-11T14:08:07.780Z,27.74
2022-09-11T14:13:17.025Z,27.73
2022-09-11T14:18:28.737Z,27.50
2022-09-11T14:23:33.726Z,27.27
2022-09-11T14:28:42.942Z,27.10
2022-09-11T14:33:45.899Z,27.30
2022-09-11T14:38:50.360Z,27.48
2022-09-11T14:43:53.391Z,27.74
2022-09-11T14:48:56.418Z,28.05
2022-09-11T14:54:01.145Z,28.07
2022-09-11T14:59:04.165Z,28.18
2022-09-11T15:04:08.225Z,28.16
2022-09-11T15:09:12.522Z,28.23
2022-09-11T15:14:32.254Z,28.23
2022-09-11T15:19:39.792Z,28.11
2022-09-11T15:24:44.458Z,28.15
2022-09-11T15:29:47.641Z,28.17
2022-09-11T15:34:51.726Z,28.18
2022-09-11T15:39:56.111Z,28.21
2022-09-11T15:44:59.212Z,28.20
2022-09-11T15:50:02.313Z,28.05
2022-09-11T15:55:10.038Z,28.00
2022-09-11T16:00:15.306Z,27.97
2022-09-11T16:05:18.820Z,27.83
2022-09-11T16:10:23.593Z,27.81
2022-09-11T16:15:26.620Z,27.71
2022-09-11T16:20:31.291Z,27.66
2022-09-11T16:25:44.016Z,27.60
2022-09-11T16:30:50.711Z,27.56
2022-09-11T16:36:01.622Z,27.42
2022-09-11T16:41:11.199Z,27.28
2022-09-11T16:46:16.050Z,27.05
2022-09-11T16:51:21.278Z,26.80
2022-09-11T16:56:26.538Z,26.69
2022-09-11T17:01:29.807Z,26.62
2022-09-11T17:06:33.078Z,26.51
2022-09-11T17:11:37.722Z,26.43
2022-09-11T17:16:41.269Z,26.20
2022-09-11T17:21:44.727Z,26.02
2022-09-11T17:26:50.726Z,25.87
2022-09-11T17:32:10.651Z,25.67
2022-09-11T17:37:17.267Z,25.40
2022-09-11T17:42:22.678Z,25.17
2022-09-11T17:47:25.979Z,24.91
2022-09-11T17:52:29.118Z,24.64
2022-09-11T17:57:33.604Z,24.34
2022-09-11T18:02:36.622Z,24.09
2022-09-11T18:07:42.938Z,23.79
2022-09-11T18:12:48.332Z,23.59
2022-09-11T18:17:53.796Z,23.38
2022-09-11T18:22:56.747Z,23.15
2022-09-11T18:28:02.474Z,22.94
2022-09-11T18:33:10.599Z,22.73
2022-09-11T18:38:13.907Z,22.48
2022-09-11T18:43:18.239Z,22.31
2022-09-11T18:48:21.227Z,22.08
2022-09-11T18:53:25.560Z,21.95
2022-09-11T18:58:32.201Z,21.78
2022-09-11T19:03:35.387Z,21.60
2022-09-11T19:08:40.392Z,21.44
2022-09-11T19:13:46.456Z,21.27
2022-09-11T19:18:50.293Z,21.13
2022-09-11T19:23:57.732Z,20.96
2022-09-11T19:29:02.107Z,20.84
2022-09-11T19:34:05.176Z,20.75
2022-09-11T19:39:10.493Z,20.57
2022-09-11T19:44:15.006Z,20.45
2022-09-11T19:49:18.090Z,20.34
2022-09-11T19:54:22.463Z,20.20
2022-09-11T19:59:27.943Z,20.04
2022-09-11T20:04:31.054Z,19.94
2022-09-11T20:09:34.621Z,19.77
2022-09-11T20:14:42.422Z,19.65
2022-09-11T20:19:45.806Z,19.53
2022-09-11T20:24:50.027Z,19.43
2022-09-11T20:29:55.292Z,19.27
2022-09-11T20:35:00.365Z,19.17
2022-09-11T20:40:05.347Z,19.10
2022-09-11T20:45:11.575Z,18.99
2022-09-11T20:50:14.635Z,18.89
2022-09-11T20:55:18.272Z,18.80
2022-09-11T21:00:22.858Z,18.71
2022-09-11T21:05:25.903Z,18.63
2022-09-11T21:10:29.223Z,18.55
2022-09-11T21:15:33.565Z,18.47
2022-09-11T21:20:36.557Z,18.41
2022-09-11T21:25:41.407Z,18.30
2022-09-11T21:30:45.797Z,18.22
2022-09-11T21:35:53.620Z,18.12
2022-09-11T21:40:57.689Z,18.07
2022-09-11T21:46:02.163Z,17.93
2022-09-11T21:51:09.847Z,17.87
2022-09-11T21:56:25.199Z,17.77
2022-09-11T22:01:31.900Z,17.70
2022-09-11T22:06:35.335Z,17.63
2022-09-11T22:11:40.088Z,17.56
2022-09-11T22:16:44.636Z,17.46
2022-09-11T22:21:47.641Z,17.40
2022-09-11T22:26:50.628Z,17.35
2022-09-11T22:31:55.131Z,17.32
2022-09-11T22:36:58.104Z,17.27
2022-09-11T22:42:01.048Z,17.20
2022-09-11T22:47:05.697Z,17.22
2022-09-11T22:52:09.477Z,17.15
2022-09-11T22:57:12.414Z,17.20
2022-09-11T23:02:18.424Z,17.11
2022-09-11T23:07:21.411Z,17.08
2022-09-11T23:12:24.600Z,17.08
2022-09-11T23:17:28.926Z,17.00
2022-09-11T23:22:32.017Z,16.89
2022-09-11T23:27:34.968Z,16.79
2022-09-11T23:32:42.154Z,16.75
2022-09-11T23:37:45.612Z,16.69
2022-09-11T23:42:48.627Z,16.63
2022-09-11T23:47:52.928Z,16.63
2022-09-11T23:52:55.966Z,16.63
2022-09-11T23:57:59.250Z,16.65
